Flight Track Log - Related Links

Times and Time Zones

All times are in EDT time to prevent confusion due to time zone crossing. See the SWA414 flight status page for this flight to view local times or setup timezone preferences in your user account.

Time Position Orientation Groundspeed Altitude Reporting Facility
EDT Latitude Longitude Course Direction KTS MPH feet Rate Location/Type
Tue 06:57:26 PM 41.7825 -87.6964 201° Southwest 179 206 40,000  Level Chicago Center
Tue 06:58:28 PM 41.7250 -87.6683 160° South 271 312 5,300 -16,065 Descending Chicago Center
Tue 06:59:30 PM 41.6542 -87.6967 197° South 264 304 6,800 2,177 Climbing Chicago Center
Tue 07:00:32 PM 41.5792 -87.7317 199° South 281 323 9,800 2,226 Climbing Chicago Center
Tue 07:01:34 PM 41.5408 -87.8244 241° Southwest 290 334 11,400 1,306 Climbing Chicago Center
Tue 07:02:00 PM 41.0696 -88.3153 201° Southwest  Level FlightAware Approximate
Tue 07:02:36 PM 41.4914 -87.9061 231° Southwest 296 341 12,500  Level Chicago Center
Tue 07:03:38 PM 41.4058 -87.9639 207° Southwest 332 382 13,800 2,710 Climbing Chicago Center
Tue 07:04:40 PM 41.3153 -88.0233 206° Southwest 352 405 18,100 4,113 Climbing Chicago Center
Tue 07:05:42 PM 41.2006 -88.0853 202° Southwest 367 422 22,300 3,097 Climbing Chicago Center
Tue 07:06:44 PM 41.0992 -88.1425 203° Southwest 393 452 24,500 2,468 Climbing Chicago Center
Tue 07:07:46 PM 40.9939 -88.1989 202° Southwest 405 466 27,400 2,544 Climbing Chicago Center
Tue 07:08:49 PM 40.8858 -88.2581 202° Southwest 417 480 29,800 2,160 Climbing Chicago Center
Tue 07:09:51 PM 40.7842 -88.3428 212° Southwest 439 505 31,900 2,274 Climbing Chicago Center
Tue 07:10:53 PM 40.7033 -88.4650 229° Southwest 444 511 34,500 2,468 Climbing Chicago Center
Tue 07:11:55 PM 40.6056 -88.6092 228° Southwest 441 507 37,000 2,032 Climbing Chicago Center
Tue 07:12:57 PM 40.5269 -88.7292 229° Southwest 437 503 38,700 1,452 Climbing Chicago Center
Tue 07:13:59 PM 40.4536 -88.8436 230° Southwest 441 507 40,000 629 Climbing Chicago Center
Tue 07:15:01 PM 40.3750 -88.9694 231° Southwest 443 510 40,000  Level Chicago Center
Tue 07:16:03 PM 40.2789 -89.1178 230° Southwest 443 510 40,000  Level Chicago Center
Tue 07:17:05 PM 40.1989 -89.2397 229° Southwest 441 507 40,000  Level Chicago Center
Tue 07:18:07 PM 40.1194 -89.3611 229° Southwest 439 505 40,000  Level Chicago Center
Tue 07:18:53 PM 40.0556 -89.4589 230° Southwest 438 504 40,000  Level Kansas City Center
Tue 07:19:10 PM 40.0394 -89.4833 229° Southwest 441 507 40,000  Level Chicago Center
Tue 07:20:12 PM 39.9600 -89.6036 229° Southwest 439 505 40,000  Level Chicago Center
Tue 07:20:57 PM 39.8975 -89.6983 229° Southwest 435 501 40,000  Level Kansas City Center
Tue 07:21:59 PM 39.8194 -89.8175 230° Southwest 434 499 40,000  Level Kansas City Center
Tue 07:23:01 PM 39.7411 -89.9350 229° Southwest 431 496 40,000  Level Kansas City Center
Tue 07:24:03 PM 39.6628 -90.0522 229° Southwest 435 501 40,000  Level Kansas City Center
Tue 07:25:05 PM 39.5681 -90.1953 229° Southwest 437 503 40,000  Level Kansas City Center
Tue 07:26:07 PM 39.4889 -90.3153 229° Southwest 438 504 40,000  Level Kansas City Center
Tue 07:27:09 PM 39.4086 -90.4331 229° Southwest 439 505 40,000  Level Kansas City Center
Tue 07:28:11 PM 39.3292 -90.5519 229° Southwest 439 505 40,000  Level Kansas City Center
Tue 07:29:13 PM 39.2492 -90.6694 229° Southwest 439 505 40,000  Level Kansas City Center
Tue 07:30:14 PM 39.1550 -90.8064 228° Southwest 431 496 40,000  Level Kansas City Center
Tue 07:31:16 PM 39.0764 -90.9231 229° Southwest 433 498 40,000  Level Kansas City Center
Tue 07:32:18 PM 38.9972 -91.0372 228° Southwest 432 497 40,000  Level Kansas City Center
Tue 07:33:20 PM 38.9194 -91.1519 229° Southwest 431 496 40,000  Level Kansas City Center
Tue 07:34:22 PM 38.8406 -91.2656 228° Southwest 430 495 40,000  Level Kansas City Center
Tue 07:35:24 PM 38.7603 -91.3800 228° Southwest 432 497 40,000  Level Kansas City Center
Tue 07:36:25 PM 38.6803 -91.5156 233° Southwest 433 498 40,000  Level Kansas City Center
Tue 07:37:27 PM 38.6161 -91.6472 238° Southwest 435 501 40,000  Level Kansas City Center
Tue 07:38:29 PM 38.5492 -91.7750 236° Southwest 433 498 40,000  Level Kansas City Center
Tue 07:39:31 PM 38.4672 -91.9322 236° Southwest 440 506 40,000  Level Kansas City Center
Tue 07:40:32 PM 38.3992 -92.0608 236° Southwest 440 506 40,000  Level Kansas City Center
Tue 07:41:34 PM 38.3314 -92.1894 236° Southwest 439 505 40,000  Level Kansas City Center
Tue 07:42:36 PM 38.2656 -92.3161 237° Southwest 434 499 40,000  Level Kansas City Center
Tue 07:43:38 PM 38.2000 -92.4417 236° Southwest 431 496 40,000  Level Kansas City Center
Tue 07:44:39 PM 38.1278 -92.5786 236° Southwest 430 495 40,000  Level Kansas City Center
Tue 07:45:41 PM 38.0606 -92.7033 236° Southwest 429 494 40,000  Level Kansas City Center
Tue 07:46:43 PM 37.9892 -92.8369 236° Southwest 425 489 40,000 -97 Level Kansas City Center
Tue 07:47:45 PM 37.9233 -92.9600 236° Southwest 424 488 39,800 -585 Descending Kansas City Center
Tue 07:48:46 PM 37.8575 -93.0808 235° Southwest 420 483 38,800 -976 Descending Kansas City Center
Tue 07:49:48 PM 37.7914 -93.2025 236° Southwest 419 482 37,800 -871 Descending Kansas City Center
Tue 07:50:50 PM 37.7244 -93.3275 236° Southwest 426 490 37,000 -484 Descending Kansas City Center
Tue 07:51:52 PM 37.6439 -93.4744 235° Southwest 426 490 36,800 -585 Descending Kansas City Center
Tue 07:52:53 PM 37.5764 -93.5944 235° Southwest 421 484 35,800 -976 Descending Kansas City Center
Tue 07:53:55 PM 37.5108 -93.7164 236° Southwest 420 483 34,800 -976 Descending Kansas City Center
Tue 07:54:56 PM 37.4428 -93.8392 235° Southwest 425 489 33,800 -976 Descending Kansas City Center
Tue 07:55:58 PM 37.3758 -93.9589 235° Southwest 420 483 32,800 -1,024 Descending Kansas City Center
Tue 07:56:59 PM 37.3106 -94.0772 235° Southwest 412 474 31,700 -1,024 Descending Kansas City Center
Tue 07:58:01 PM 37.2464 -94.1922 235° Southwest 410 472 30,700 -968 Descending Kansas City Center
Tue 07:59:03 PM 37.1817 -94.3064 235° Southwest 403 464 29,700 -1,073 Descending Kansas City Center
Tue 08:00:04 PM 37.1069 -94.4411 235° Southwest 395 455 28,500 -1,073 Descending Kansas City Center
Tue 08:01:06 PM 37.0456 -94.5517 235° Southwest 389 448 27,500 -976 Descending Kansas City Center
Tue 08:02:07 PM 36.9850 -94.6589 235° Southwest 381 438 26,500 -976 Descending Kansas City Center
Tue 08:03:09 PM 36.9256 -94.7656 235° Southwest 376 433 25,500 -1,258 Descending Kansas City Center
Tue 08:04:11 PM 36.8661 -94.8700 235° Southwest 371 427 23,900 -1,756 Descending Kansas City Center
Tue 08:05:12 PM 36.8083 -94.9714 235° Southwest 366 421 21,900 -2,154 Descending Kansas City Center
Tue 08:05:29 PM 36.7869 -95.0108 236° Southwest 364 419 21,100 -2,264 Descending Kansas City Center
Tue 08:06:05 PM 36.7522 -95.0678 233° Southwest 347 399 19,900 -1,979 Descending Kansas City Center
Tue 08:07:06 PM 36.6997 -95.1614 235° Southwest 331 381 17,900 -1,967 Descending Kansas City Center
Tue 08:08:07 PM 36.6428 -95.2500 231° Southwest 329 379 15,900 -1,983 Descending Kansas City Center
Tue 08:09:07 PM 36.5747 -95.3322 224° Southwest 318 366 13,900 -1,934 Descending Kansas City Center
Tue 08:10:08 PM 36.5256 -95.4172 234° Southwest 303 349 12,000 -1,770 Descending Kansas City Center
Tue 08:11:09 PM 36.4853 -95.5058 241° Southwest 292 336 10,300 -1,636 Descending Kansas City Center
Tue 08:12:09 PM 36.4486 -95.5914 242° Southwest 282 325 8,700 -1,440 Descending Kansas City Center
Tue 08:12:24 PM 36.4469 -95.6000 256° West 284 327 8,500 -1,574 Descending Kansas City Center
Tue 08:13:10 PM 36.4142 -95.6764 242° Southwest 274 315 7,100 -1,672 Descending Kansas City Center
Tue 08:13:25 PM 36.4125 -95.6844 256° West 277 319 6,800 -1,574 Descending Kansas City Center
Tue 08:14:11 PM 36.3817 -95.7611 243° Southwest 273 314 5,500 -1,839 Descending Kansas City Center
Tue 08:14:27 PM 36.3742 -95.7861 250° West 272 313 4,900 -1,500 Descending Kansas City Center
Tue 08:15:11 PM 36.3531 -95.8453 246° West 271 312 4,000 -1,065 Descending Kansas City Center
Tue 08:15:29 PM 36.3444 -95.8706 247° West 270 311 3,800 -393 Descending Kansas City Center
Tue 08:16:12 PM 36.3244 -95.9269 246° West 227 261 3,600 -492 Descending Kansas City Center
Tue 08:16:30 PM 36.3178 -95.9428 242° Southwest 249 287 3,300 -1,000 Descending Kansas City Center
Tue 08:17:12 PM 36.2847 -95.9786 221° Southwest 200 230 2,600 -774 Descending Kansas City Center
Tue 08:17:32 PM 36.2733 -95.9869 211° Southwest 221 254 2,500 -590 Descending Kansas City Center
Tue 08:18:13 PM 36.2411 -95.9842 176° South 151 174 2,000 -581 Descending Kansas City Center
Tue 08:18:34 PM 36.2322 -95.9817 167° South 177 204 1,900 -295 Descending Kansas City Center
Tue 08:19:14 PM 36.2081 -95.9653 151° Southeast 119 137 1,700 -393 Descending Kansas City Center
Tue 08:19:35 PM 36.2000 -95.9603 153° Southeast 148 170 1,500 -600 Descending Kansas City Center
Tue 08:20:14 PM 36.1942 -95.9256 102° East 122 140 1,100 -581 Descending Kansas City Center
Tue 08:20:37 PM 36.1944 -95.9169 88° East 136 157 900 -522 Descending Kansas City Center

Login

Don't have an account? Register now (free) for customized features, flight alerts, and more!